Cayuga, Indiana
Current Conditions -  °F | °C
As of 12:15 PM on Sunday 23 Nov 2014 (Local Time) from KDNV Reporting Station
Overcast Overcast  
Wind Chill: 54°   Ceiling: 1800
Heat Index: 54°   Visibility: 10mi
Dew Point: 47°   Wind: 17mph
Humidity: 78%   Direction: 160°SSE
Pressure: 29.67"   Gusts: 21mph
Location:  39.95°N, 87.46°W
Report Text: KDNV 231715Z AUTO 16015G18KT 10SM OVC018 12/09 A2967 RMK AO2 T01230085
Loading
Personal Weather Stations






























Interactive Weather Map New forecast layout! Learn more

10-Day Weather Forecast

Advertisements
Track Severe Weather on mobile